sensor_id;sensor_type;location;lat;lon;timestamp;P1;durP1;ratioP1;P2;durP2;ratioP2
42700;SDS011;28316;49.504;8.526;2023-06-22T00:02:17;6.18;;;2.28;;
42700;SDS011;28316;49.504;8.526;2023-06-22T00:04:43;6.97;;;2.45;;
42700;SDS011;28316;49.504;8.526;2023-06-22T00:07:09;5.82;;;1.92;;
42700;SDS011;28316;49.504;8.526;2023-06-22T00:09:35;5.30;;;2.42;;
42700;SDS011;28316;49.504;8.526;2023-06-22T00:12:01;8.05;;;2.47;;
42700;SDS011;28316;49.504;8.526;2023-06-22T00:14:27;5.57;;;2.30;;
42700;SDS011;28316;49.504;8.526;2023-06-22T00:16:53;4.63;;;2.20;;
42700;SDS011;28316;49.504;8.526;2023-06-22T00:19:20;4.90;;;2.60;;
42700;SDS011;28316;49.504;8.526;2023-06-22T00:21:47;5.03;;;2.38;;
42700;SDS011;28316;49.504;8.526;2023-06-22T00:24:18;3.08;;;1.58;;
42700;SDS011;28316;49.504;8.526;2023-06-22T00:26:49;3.35;;;1.83;;
42700;SDS011;28316;49.504;8.526;2023-06-22T00:29:15;5.18;;;2.30;;
42700;SDS011;28316;49.504;8.526;2023-06-22T00:31:41;6.55;;;2.13;;
42700;SDS011;28316;49.504;8.526;2023-06-22T00:34:06;5.50;;;2.50;;
42700;SDS011;28316;49.504;8.526;2023-06-22T00:36:34;4.90;;;2.33;;
42700;SDS011;28316;49.504;8.526;2023-06-22T00:39:00;4.35;;;2.40;;
42700;SDS011;28316;49.504;8.526;2023-06-22T00:41:26;3.45;;;2.03;;
42700;SDS011;28316;49.504;8.526;2023-06-22T00:43:55;8.65;;;2.40;;
42700;SDS011;28316;49.504;8.526;2023-06-22T00:46:21;9.85;;;2.90;;
42700;SDS011;28316;49.504;8.526;2023-06-22T00:48:48;4.50;;;2.60;;
42700;SDS011;28316;49.504;8.526;2023-06-22T00:51:15;7.55;;;2.60;;
42700;SDS011;28316;49.504;8.526;2023-06-22T00:53:41;7.72;;;2.72;;
42700;SDS011;28316;49.504;8.526;2023-06-22T00:56:08;8.48;;;3.20;;
42700;SDS011;28316;49.504;8.526;2023-06-22T00:58:37;5.72;;;2.78;;
42700;SDS011;28316;49.504;8.526;2023-06-22T01:01:06;10.70;;;3.97;;
42700;SDS011;28316;49.504;8.526;2023-06-22T01:03:33;11.35;;;3.72;;
42700;SDS011;28316;49.504;8.526;2023-06-22T01:06:01;6.30;;;2.75;;
42700;SDS011;28316;49.504;8.526;2023-06-22T01:08:51;5.55;;;3.20;;
42700;SDS011;28316;49.504;8.526;2023-06-22T01:11:28;8.23;;;4.18;;
42700;SDS011;28316;49.504;8.526;2023-06-22T01:14:05;7.72;;;3.35;;
42700;SDS011;28316;49.504;8.526;2023-06-22T01:16:39;6.18;;;3.20;;
42700;SDS011;28316;49.504;8.526;2023-06-22T01:22:14;6.35;;;3.40;;
42700;SDS011;28316;49.504;8.526;2023-06-22T01:30:15;7.07;;;3.35;;
42700;SDS011;28316;49.504;8.526;2023-06-22T01:32:43;5.22;;;3.10;;
42700;SDS011;28316;49.504;8.526;2023-06-22T01:35:10;9.10;;;3.17;;
42700;SDS011;28316;49.504;8.526;2023-06-22T01:37:37;8.23;;;3.78;;
42700;SDS011;28316;49.504;8.526;2023-06-22T01:40:04;11.75;;;3.63;;
42700;SDS011;28316;49.504;8.526;2023-06-22T01:42:33;7.47;;;3.58;;
42700;SDS011;28316;49.504;8.526;2023-06-22T01:45:00;7.53;;;4.00;;
42700;SDS011;28316;49.504;8.526;2023-06-22T01:47:28;6.93;;;3.42;;
42700;SDS011;28316;49.504;8.526;2023-06-22T01:49:54;7.55;;;3.65;;
42700;SDS011;28316;49.504;8.526;2023-06-22T01:52:21;8.05;;;3.97;;
42700;SDS011;28316;49.504;8.526;2023-06-22T01:54:47;5.85;;;3.63;;
42700;SDS011;28316;49.504;8.526;2023-06-22T01:57:16;9.88;;;3.80;;
42700;SDS011;28316;49.504;8.526;2023-06-22T02:00:04;8.98;;;3.60;;
42700;SDS011;28316;49.504;8.526;2023-06-22T02:02:39;6.50;;;3.65;;
42700;SDS011;28316;49.504;8.526;2023-06-22T02:05:24;5.30;;;3.58;;
42700;SDS011;28316;49.504;8.526;2023-06-22T02:08:15;7.28;;;3.58;;
42700;SDS011;28316;49.504;8.526;2023-06-22T02:10:49;12.00;;;4.45;;
42700;SDS011;28316;49.504;8.526;2023-06-22T02:13:17;9.15;;;4.03;;
42700;SDS011;28316;49.504;8.526;2023-06-22T02:15:45;7.47;;;4.18;;
42700;SDS011;28316;49.504;8.526;2023-06-22T02:18:12;13.30;;;3.88;;
42700;SDS011;28316;49.504;8.526;2023-06-22T02:20:39;10.45;;;4.40;;
42700;SDS011;28316;49.504;8.526;2023-06-22T02:23:05;7.40;;;3.65;;
42700;SDS011;28316;49.504;8.526;2023-06-22T02:25:32;7.05;;;4.00;;
42700;SDS011;28316;49.504;8.526;2023-06-22T02:27:59;9.55;;;4.20;;
42700;SDS011;28316;49.504;8.526;2023-06-22T02:30:24;9.63;;;4.22;;
42700;SDS011;28316;49.504;8.526;2023-06-22T02:32:50;5.95;;;3.75;;
42700;SDS011;28316;49.504;8.526;2023-06-22T02:35:23;8.02;;;4.10;;
42700;SDS011;28316;49.504;8.526;2023-06-22T02:37:59;8.82;;;4.07;;
42700;SDS011;28316;49.504;8.526;2023-06-22T02:40:27;8.88;;;4.50;;
42700;SDS011;28316;49.504;8.526;2023-06-22T02:42:54;7.70;;;3.92;;
42700;SDS011;28316;49.504;8.526;2023-06-22T02:45:20;9.23;;;4.22;;
42700;SDS011;28316;49.504;8.526;2023-06-22T02:47:46;12.57;;;4.65;;
42700;SDS011;28316;49.504;8.526;2023-06-22T02:50:15;10.77;;;4.13;;
42700;SDS011;28316;49.504;8.526;2023-06-22T02:52:41;9.43;;;4.25;;
42700;SDS011;28316;49.504;8.526;2023-06-22T02:55:06;8.40;;;4.53;;
42700;SDS011;28316;49.504;8.526;2023-06-22T02:57:33;7.85;;;4.03;;
42700;SDS011;28316;49.504;8.526;2023-06-22T02:59:59;10.18;;;4.35;;
42700;SDS011;28316;49.504;8.526;2023-06-22T03:02:25;9.02;;;4.68;;
42700;SDS011;28316;49.504;8.526;2023-06-22T03:04:51;7.32;;;4.20;;
42700;SDS011;28316;49.504;8.526;2023-06-22T03:07:19;12.45;;;4.55;;
42700;SDS011;28316;49.504;8.526;2023-06-22T03:09:45;7.13;;;3.97;;
42700;SDS011;28316;49.504;8.526;2023-06-22T03:12:11;8.40;;;4.32;;
42700;SDS011;28316;49.504;8.526;2023-06-22T03:14:37;6.82;;;4.30;;
42700;SDS011;28316;49.504;8.526;2023-06-22T03:17:04;7.55;;;4.65;;
42700;SDS011;28316;49.504;8.526;2023-06-22T03:19:31;13.25;;;4.50;;
42700;SDS011;28316;49.504;8.526;2023-06-22T03:21:57;9.68;;;4.78;;
42700;SDS011;28316;49.504;8.526;2023-06-22T03:24:25;7.45;;;4.30;;
42700;SDS011;28316;49.504;8.526;2023-06-22T03:26:53;10.68;;;5.63;;
42700;SDS011;28316;49.504;8.526;2023-06-22T03:29:19;12.18;;;5.00;;
42700;SDS011;28316;49.504;8.526;2023-06-22T03:31:45;14.00;;;4.93;;
42700;SDS011;28316;49.504;8.526;2023-06-22T03:34:11;9.00;;;5.15;;
42700;SDS011;28316;49.504;8.526;2023-06-22T03:36:37;8.93;;;4.55;;
42700;SDS011;28316;49.504;8.526;2023-06-22T03:39:02;9.57;;;5.10;;
42700;SDS011;28316;49.504;8.526;2023-06-22T03:41:28;12.20;;;4.82;;
42700;SDS011;28316;49.504;8.526;2023-06-22T03:43:54;9.25;;;4.38;;
42700;SDS011;28316;49.504;8.526;2023-06-22T03:46:19;9.00;;;4.38;;
42700;SDS011;28316;49.504;8.526;2023-06-22T03:48:45;12.05;;;4.80;;
42700;SDS011;28316;49.504;8.526;2023-06-22T03:51:11;10.80;;;5.82;;
42700;SDS011;28316;49.504;8.526;2023-06-22T03:53:37;7.82;;;4.35;;
42700;SDS011;28316;49.504;8.526;2023-06-22T03:56:02;9.90;;;4.65;;
42700;SDS011;28316;49.504;8.526;2023-06-22T03:58:28;8.77;;;4.50;;
42700;SDS011;28316;49.504;8.526;2023-06-22T04:00:57;9.73;;;5.00;;
42700;SDS011;28316;49.504;8.526;2023-06-22T04:03:25;13.90;;;5.25;;
42700;SDS011;28316;49.504;8.526;2023-06-22T04:05:50;10.48;;;4.60;;
42700;SDS011;28316;49.504;8.526;2023-06-22T04:08:16;8.15;;;4.07;;
42700;SDS011;28316;49.504;8.526;2023-06-22T04:10:43;9.10;;;4.07;;
42700;SDS011;28316;49.504;8.526;2023-06-22T04:13:09;7.03;;;4.00;;
42700;SDS011;28316;49.504;8.526;2023-06-22T04:15:34;8.07;;;3.53;;
42700;SDS011;28316;49.504;8.526;2023-06-22T04:18:00;9.15;;;3.90;;
42700;SDS011;28316;49.504;8.526;2023-06-22T04:20:26;7.90;;;3.47;;
42700;SDS011;28316;49.504;8.526;2023-06-22T04:22:53;7.15;;;2.88;;
42700;SDS011;28316;49.504;8.526;2023-06-22T04:25:19;10.68;;;3.58;;
42700;SDS011;28316;49.504;8.526;2023-06-22T04:27:46;8.85;;;3.17;;
42700;SDS011;28316;49.504;8.526;2023-06-22T04:30:13;8.48;;;3.35;;
42700;SDS011;28316;49.504;8.526;2023-06-22T04:32:43;7.32;;;2.97;;
42700;SDS011;28316;49.504;8.526;2023-06-22T04:35:10;4.72;;;2.92;;
42700;SDS011;28316;49.504;8.526;2023-06-22T04:37:36;7.78;;;3.30;;
42700;SDS011;28316;49.504;8.526;2023-06-22T04:40:02;8.70;;;3.70;;
42700;SDS011;28316;49.504;8.526;2023-06-22T04:42:30;7.00;;;3.60;;
42700;SDS011;28316;49.504;8.526;2023-06-22T04:44:57;10.18;;;3.60;;
42700;SDS011;28316;49.504;8.526;2023-06-22T04:47:22;7.35;;;3.63;;
42700;SDS011;28316;49.504;8.526;2023-06-22T04:49:48;8.23;;;3.95;;
42700;SDS011;28316;49.504;8.526;2023-06-22T04:52:14;7.60;;;3.88;;
42700;SDS011;28316;49.504;8.526;2023-06-22T04:54:42;10.57;;;4.82;;
42700;SDS011;28316;49.504;8.526;2023-06-22T04:57:15;9.98;;;4.03;;
42700;SDS011;28316;49.504;8.526;2023-06-22T04:59:42;8.38;;;3.83;;
42700;SDS011;28316;49.504;8.526;2023-06-22T05:02:08;6.57;;;3.33;;
42700;SDS011;28316;49.504;8.526;2023-06-22T05:04:35;8.52;;;3.72;;
42700;SDS011;28316;49.504;8.526;2023-06-22T05:07:03;6.78;;;3.55;;
42700;SDS011;28316;49.504;8.526;2023-06-22T05:09:29;12.55;;;3.83;;
42700;SDS011;28316;49.504;8.526;2023-06-22T05:11:56;6.13;;;3.92;;
42700;SDS011;28316;49.504;8.526;2023-06-22T05:14:21;10.43;;;5.28;;
42700;SDS011;28316;49.504;8.526;2023-06-22T05:16:48;7.70;;;3.15;;
42700;SDS011;28316;49.504;8.526;2023-06-22T05:19:14;8.35;;;3.60;;
42700;SDS011;28316;49.504;8.526;2023-06-22T05:21:40;10.68;;;3.05;;
42700;SDS011;28316;49.504;8.526;2023-06-22T05:24:05;9.55;;;3.40;;
42700;SDS011;28316;49.504;8.526;2023-06-22T05:26:32;15.68;;;3.50;;
42700;SDS011;28316;49.504;8.526;2023-06-22T05:29:00;8.88;;;3.95;;
42700;SDS011;28316;49.504;8.526;2023-06-22T05:31:27;6.07;;;3.40;;
42700;SDS011;28316;49.504;8.526;2023-06-22T05:33:54;8.93;;;3.33;;
42700;SDS011;28316;49.504;8.526;2023-06-22T05:36:20;8.98;;;2.72;;
42700;SDS011;28316;49.504;8.526;2023-06-22T05:38:50;5.38;;;3.00;;
42700;SDS011;28316;49.504;8.526;2023-06-22T05:41:17;6.85;;;2.85;;
42700;SDS011;28316;49.504;8.526;2023-06-22T05:43:43;4.88;;;2.72;;
42700;SDS011;28316;49.504;8.526;2023-06-22T05:46:09;8.57;;;3.17;;
42700;SDS011;28316;49.504;8.526;2023-06-22T05:48:35;5.97;;;3.05;;
42700;SDS011;28316;49.504;8.526;2023-06-22T05:51:00;6.07;;;3.03;;
42700;SDS011;28316;49.504;8.526;2023-06-22T05:53:26;5.70;;;2.83;;
42700;SDS011;28316;49.504;8.526;2023-06-22T05:55:52;6.32;;;3.08;;
42700;SDS011;28316;49.504;8.526;2023-06-22T05:58:18;6.03;;;2.97;;
42700;SDS011;28316;49.504;8.526;2023-06-22T06:00:44;6.10;;;3.53;;
42700;SDS011;28316;49.504;8.526;2023-06-22T06:03:10;7.18;;;3.42;;
42700;SDS011;28316;49.504;8.526;2023-06-22T06:05:36;5.63;;;3.03;;
42700;SDS011;28316;49.504;8.526;2023-06-22T06:08:03;7.20;;;3.53;;
42700;SDS011;28316;49.504;8.526;2023-06-22T06:10:31;5.55;;;2.72;;
42700;SDS011;28316;49.504;8.526;2023-06-22T06:12:58;4.93;;;2.80;;
42700;SDS011;28316;49.504;8.526;2023-06-22T06:15:27;5.82;;;2.75;;
42700;SDS011;28316;49.504;8.526;2023-06-22T06:17:53;6.80;;;3.63;;
42700;SDS011;28316;49.504;8.526;2023-06-22T06:20:20;5.57;;;3.42;;
42700;SDS011;28316;49.504;8.526;2023-06-22T06:22:48;7.32;;;2.97;;
42700;SDS011;28316;49.504;8.526;2023-06-22T06:25:14;5.60;;;2.67;;
42700;SDS011;28316;49.504;8.526;2023-06-22T06:27:44;4.70;;;2.72;;
42700;SDS011;28316;49.504;8.526;2023-06-22T06:30:12;4.97;;;2.58;;
42700;SDS011;28316;49.504;8.526;2023-06-22T06:32:39;6.10;;;2.75;;
42700;SDS011;28316;49.504;8.526;2023-06-22T06:35:06;5.15;;;2.30;;
42700;SDS011;28316;49.504;8.526;2023-06-22T06:37:36;5.13;;;2.60;;
42700;SDS011;28316;49.504;8.526;2023-06-22T06:40:05;4.18;;;2.40;;
42700;SDS011;28316;49.504;8.526;2023-06-22T06:42:35;5.18;;;2.78;;
42700;SDS011;28316;49.504;8.526;2023-06-22T06:45:09;5.85;;;2.20;;
42700;SDS011;28316;49.504;8.526;2023-06-22T06:47:37;5.07;;;2.20;;
42700;SDS011;28316;49.504;8.526;2023-06-22T06:50:04;6.28;;;2.60;;
42700;SDS011;28316;49.504;8.526;2023-06-22T06:52:31;4.20;;;2.15;;
42700;SDS011;28316;49.504;8.526;2023-06-22T06:54:57;7.22;;;2.88;;
42700;SDS011;28316;49.504;8.526;2023-06-22T06:57:23;4.20;;;2.22;;
42700;SDS011;28316;49.504;8.526;2023-06-22T06:59:53;4.20;;;2.03;;
42700;SDS011;28316;49.504;8.526;2023-06-22T07:02:22;3.88;;;2.20;;
42700;SDS011;28316;49.504;8.526;2023-06-22T07:04:49;6.15;;;2.70;;
42700;SDS011;28316;49.504;8.526;2023-06-22T07:07:15;4.22;;;2.28;;
42700;SDS011;28316;49.504;8.526;2023-06-22T07:09:41;4.20;;;2.45;;
42700;SDS011;28316;49.504;8.526;2023-06-22T07:12:07;4.43;;;2.40;;
42700;SDS011;28316;49.504;8.526;2023-06-22T07:14:33;5.28;;;2.55;;
42700;SDS011;28316;49.504;8.526;2023-06-22T07:16:59;4.57;;;2.58;;
42700;SDS011;28316;49.504;8.526;2023-06-22T07:19:25;6.90;;;2.75;;
42700;SDS011;28316;49.504;8.526;2023-06-22T07:21:53;5.32;;;2.58;;
42700;SDS011;28316;49.504;8.526;2023-06-22T07:24:22;5.30;;;2.55;;
42700;SDS011;28316;49.504;8.526;2023-06-22T07:26:49;4.97;;;2.30;;
42700;SDS011;28316;49.504;8.526;2023-06-22T07:29:18;8.27;;;2.40;;
42700;SDS011;28316;49.504;8.526;2023-06-22T07:31:48;7.45;;;2.83;;
42700;SDS011;28316;49.504;8.526;2023-06-22T07:34:16;4.35;;;2.63;;
42700;SDS011;28316;49.504;8.526;2023-06-22T07:36:43;4.35;;;2.40;;
42700;SDS011;28316;49.504;8.526;2023-06-22T07:39:09;5.10;;;2.05;;
42700;SDS011;28316;49.504;8.526;2023-06-22T07:41:35;5.03;;;2.45;;
42700;SDS011;28316;49.504;8.526;2023-06-22T07:44:02;5.30;;;2.65;;
42700;SDS011;28316;49.504;8.526;2023-06-22T07:46:28;5.00;;;2.00;;
42700;SDS011;28316;49.504;8.526;2023-06-22T07:48:55;4.25;;;2.20;;
42700;SDS011;28316;49.504;8.526;2023-06-22T07:51:22;3.10;;;1.92;;
42700;SDS011;28316;49.504;8.526;2023-06-22T07:53:48;6.85;;;2.40;;
42700;SDS011;28316;49.504;8.526;2023-06-22T07:56:14;5.68;;;2.40;;
42700;SDS011;28316;49.504;8.526;2023-06-22T07:58:44;8.52;;;3.00;;
42700;SDS011;28316;49.504;8.526;2023-06-22T08:01:11;4.97;;;2.70;;
42700;SDS011;28316;49.504;8.526;2023-06-22T08:03:37;3.72;;;2.25;;
42700;SDS011;28316;49.504;8.526;2023-06-22T08:06:04;4.68;;;2.33;;
42700;SDS011;28316;49.504;8.526;2023-06-22T08:08:31;8.98;;;2.92;;
42700;SDS011;28316;49.504;8.526;2023-06-22T08:10:57;4.20;;;2.42;;
42700;SDS011;28316;49.504;8.526;2023-06-22T08:13:22;3.60;;;1.98;;
42700;SDS011;28316;49.504;8.526;2023-06-22T08:15:48;4.68;;;1.95;;
42700;SDS011;28316;49.504;8.526;2023-06-22T08:18:14;6.03;;;2.35;;
42700;SDS011;28316;49.504;8.526;2023-06-22T08:20:41;3.53;;;1.75;;
42700;SDS011;28316;49.504;8.526;2023-06-22T08:23:07;4.15;;;2.05;;
42700;SDS011;28316;49.504;8.526;2023-06-22T08:25:33;6.53;;;2.33;;
42700;SDS011;28316;49.504;8.526;2023-06-22T08:28:00;7.35;;;2.80;;
42700;SDS011;28316;49.504;8.526;2023-06-22T08:30:30;7.30;;;2.40;;
42700;SDS011;28316;49.504;8.526;2023-06-22T08:32:55;5.20;;;2.40;;
42700;SDS011;28316;49.504;8.526;2023-06-22T08:35:24;3.92;;;2.10;;
42700;SDS011;28316;49.504;8.526;2023-06-22T08:37:50;3.50;;;2.10;;
42700;SDS011;28316;49.504;8.526;2023-06-22T08:40:22;6.35;;;2.22;;
42700;SDS011;28316;49.504;8.526;2023-06-22T08:42:48;4.45;;;1.90;;
42700;SDS011;28316;49.504;8.526;2023-06-22T08:45:14;4.13;;;2.00;;
42700;SDS011;28316;49.504;8.526;2023-06-22T08:47:41;4.25;;;2.10;;
42700;SDS011;28316;49.504;8.526;2023-06-22T08:50:07;5.25;;;2.17;;
42700;SDS011;28316;49.504;8.526;2023-06-22T08:52:35;5.53;;;1.80;;
42700;SDS011;28316;49.504;8.526;2023-06-22T08:55:01;4.03;;;2.10;;
42700;SDS011;28316;49.504;8.526;2023-06-22T08:57:27;3.40;;;1.70;;
42700;SDS011;28316;49.504;8.526;2023-06-22T08:59:53;3.15;;;1.90;;
42700;SDS011;28316;49.504;8.526;2023-06-22T09:02:23;4.18;;;1.85;;
42700;SDS011;28316;49.504;8.526;2023-06-22T09:04:55;4.50;;;2.63;;
42700;SDS011;28316;49.504;8.526;2023-06-22T09:07:24;7.60;;;2.58;;
42700;SDS011;28316;49.504;8.526;2023-06-22T09:09:51;6.63;;;2.30;;
42700;SDS011;28316;49.504;8.526;2023-06-22T09:12:20;3.80;;;1.90;;
42700;SDS011;28316;49.504;8.526;2023-06-22T09:14:50;5.45;;;2.20;;
42700;SDS011;28316;49.504;8.526;2023-06-22T09:17:16;2.80;;;1.63;;
42700;SDS011;28316;49.504;8.526;2023-06-22T09:19:42;6.88;;;2.33;;
42700;SDS011;28316;49.504;8.526;2023-06-22T09:22:08;4.50;;;2.10;;
42700;SDS011;28316;49.504;8.526;2023-06-22T09:24:34;4.88;;;2.17;;
42700;SDS011;28316;49.504;8.526;2023-06-22T09:26:59;4.20;;;1.80;;
42700;SDS011;28316;49.504;8.526;2023-06-22T09:29:25;3.47;;;1.80;;
42700;SDS011;28316;49.504;8.526;2023-06-22T09:31:51;6.72;;;2.30;;
42700;SDS011;28316;49.504;8.526;2023-06-22T09:34:18;3.90;;;2.05;;
42700;SDS011;28316;49.504;8.526;2023-06-22T09:36:48;3.85;;;1.85;;
42700;SDS011;28316;49.504;8.526;2023-06-22T09:39:14;4.35;;;1.83;;
42700;SDS011;28316;49.504;8.526;2023-06-22T09:41:40;3.25;;;2.00;;
42700;SDS011;28316;49.504;8.526;2023-06-22T09:44:05;4.65;;;2.00;;
42700;SDS011;28316;49.504;8.526;2023-06-22T09:46:31;4.43;;;1.80;;
42700;SDS011;28316;49.504;8.526;2023-06-22T09:48:57;6.90;;;1.77;;
42700;SDS011;28316;49.504;8.526;2023-06-22T09:51:23;5.75;;;2.17;;
42700;SDS011;28316;49.504;8.526;2023-06-22T09:53:49;6.18;;;2.30;;
42700;SDS011;28316;49.504;8.526;2023-06-22T09:56:15;2.42;;;1.77;;
42700;SDS011;28316;49.504;8.526;2023-06-22T09:58:42;3.60;;;2.00;;
42700;SDS011;28316;49.504;8.526;2023-06-22T10:01:09;4.35;;;1.80;;
42700;SDS011;28316;49.504;8.526;2023-06-22T10:03:35;4.03;;;2.03;;
42700;SDS011;28316;49.504;8.526;2023-06-22T10:06:02;3.10;;;1.83;;
42700;SDS011;28316;49.504;8.526;2023-06-22T10:08:28;3.03;;;1.90;;
42700;SDS011;28316;49.504;8.526;2023-06-22T10:10:54;6.72;;;2.08;;
42700;SDS011;28316;49.504;8.526;2023-06-22T10:13:20;3.35;;;1.95;;
42700;SDS011;28316;49.504;8.526;2023-06-22T10:15:45;5.32;;;2.13;;
42700;SDS011;28316;49.504;8.526;2023-06-22T10:20:42;4.75;;;2.10;;
42700;SDS011;28316;49.504;8.526;2023-06-22T10:23:09;5.82;;;2.05;;
42700;SDS011;28316;49.504;8.526;2023-06-22T10:25:34;4.55;;;2.00;;
42700;SDS011;28316;49.504;8.526;2023-06-22T10:28:00;5.38;;;2.72;;
42700;SDS011;28316;49.504;8.526;2023-06-22T10:30:26;5.32;;;1.98;;
42700;SDS011;28316;49.504;8.526;2023-06-22T10:32:52;7.07;;;2.38;;
42700;SDS011;28316;49.504;8.526;2023-06-22T10:35:17;3.95;;;1.77;;
42700;SDS011;28316;49.504;8.526;2023-06-22T10:37:44;3.80;;;2.10;;
42700;SDS011;28316;49.504;8.526;2023-06-22T10:40:11;3.72;;;1.88;;
42700;SDS011;28316;49.504;8.526;2023-06-22T10:42:38;4.60;;;2.25;;
42700;SDS011;28316;49.504;8.526;2023-06-22T10:45:04;4.63;;;2.72;;
42700;SDS011;28316;49.504;8.526;2023-06-22T10:47:31;4.70;;;2.20;;
42700;SDS011;28316;49.504;8.526;2023-06-22T10:49:57;6.10;;;2.03;;
42700;SDS011;28316;49.504;8.526;2023-06-22T10:52:22;6.32;;;1.95;;
42700;SDS011;28316;49.504;8.526;2023-06-22T10:54:48;3.30;;;1.85;;
42700;SDS011;28316;49.504;8.526;2023-06-22T10:57:14;3.03;;;1.73;;
42700;SDS011;28316;49.504;8.526;2023-06-22T10:59:39;4.40;;;2.50;;
42700;SDS011;28316;49.504;8.526;2023-06-22T11:02:05;5.10;;;1.90;;
42700;SDS011;28316;49.504;8.526;2023-06-22T11:04:31;3.83;;;1.98;;
42700;SDS011;28316;49.504;8.526;2023-06-22T11:06:57;5.95;;;3.00;;
42700;SDS011;28316;49.504;8.526;2023-06-22T11:09:23;5.47;;;2.80;;
42700;SDS011;28316;49.504;8.526;2023-06-22T11:11:49;8.18;;;2.63;;
42700;SDS011;28316;49.504;8.526;2023-06-22T11:14:20;4.22;;;1.92;;
42700;SDS011;28316;49.504;8.526;2023-06-22T11:16:46;4.43;;;2.30;;
42700;SDS011;28316;49.504;8.526;2023-06-22T11:19:12;4.88;;;2.10;;
42700;SDS011;28316;49.504;8.526;2023-06-22T11:21:38;6.32;;;2.15;;
42700;SDS011;28316;49.504;8.526;2023-06-22T11:24:04;4.88;;;2.08;;
42700;SDS011;28316;49.504;8.526;2023-06-22T11:26:30;5.32;;;2.38;;
42700;SDS011;28316;49.504;8.526;2023-06-22T11:28:57;4.70;;;2.20;;
42700;SDS011;28316;49.504;8.526;2023-06-22T11:31:23;9.88;;;3.08;;
42700;SDS011;28316;49.504;8.526;2023-06-22T11:33:49;11.00;;;2.88;;
42700;SDS011;28316;49.504;8.526;2023-06-22T11:36:15;5.40;;;2.22;;
42700;SDS011;28316;49.504;8.526;2023-06-22T11:38:41;4.55;;;2.25;;
42700;SDS011;28316;49.504;8.526;2023-06-22T11:41:08;5.80;;;2.28;;
42700;SDS011;28316;49.504;8.526;2023-06-22T11:43:35;4.80;;;1.85;;
42700;SDS011;28316;49.504;8.526;2023-06-22T11:46:02;4.13;;;1.90;;
42700;SDS011;28316;49.504;8.526;2023-06-22T11:48:29;5.53;;;2.75;;
42700;SDS011;28316;49.504;8.526;2023-06-22T11:50:55;4.97;;;2.65;;
42700;SDS011;28316;49.504;8.526;2023-06-22T11:53:21;3.83;;;2.33;;
42700;SDS011;28316;49.504;8.526;2023-06-22T11:55:49;4.28;;;1.85;;
42700;SDS011;28316;49.504;8.526;2023-06-22T11:58:15;6.50;;;2.53;;
42700;SDS011;28316;49.504;8.526;2023-06-22T12:00:41;5.97;;;2.63;;
42700;SDS011;28316;49.504;8.526;2023-06-22T12:03:07;4.55;;;2.65;;
42700;SDS011;28316;49.504;8.526;2023-06-22T12:05:34;3.63;;;2.10;;
42700;SDS011;28316;49.504;8.526;2023-06-22T12:08:00;4.68;;;2.13;;
42700;SDS011;28316;49.504;8.526;2023-06-22T12:10:26;3.63;;;2.10;;
42700;SDS011;28316;49.504;8.526;2023-06-22T12:12:53;5.38;;;2.33;;
42700;SDS011;28316;49.504;8.526;2023-06-22T12:15:19;5.13;;;2.42;;
42700;SDS011;28316;49.504;8.526;2023-06-22T12:17:45;3.40;;;2.15;;
42700;SDS011;28316;49.504;8.526;2023-06-22T12:20:13;7.57;;;1.88;;
42700;SDS011;28316;49.504;8.526;2023-06-22T12:22:39;8.48;;;2.95;;
42700;SDS011;28316;49.504;8.526;2023-06-22T12:25:06;10.27;;;2.47;;
42700;SDS011;28316;49.504;8.526;2023-06-22T12:27:33;4.90;;;2.53;;
42700;SDS011;28316;49.504;8.526;2023-06-22T12:30:03;5.13;;;2.53;;
42700;SDS011;28316;49.504;8.526;2023-06-22T12:32:30;4.30;;;2.05;;
42700;SDS011;28316;49.504;8.526;2023-06-22T12:34:56;5.22;;;2.85;;
42700;SDS011;28316;49.504;8.526;2023-06-22T12:37:22;4.20;;;2.05;;
42700;SDS011;28316;49.504;8.526;2023-06-22T12:39:48;3.70;;;1.48;;
42700;SDS011;28316;49.504;8.526;2023-06-22T12:42:15;8.27;;;3.13;;
42700;SDS011;28316;49.504;8.526;2023-06-22T12:44:41;5.28;;;1.88;;
42700;SDS011;28316;49.504;8.526;2023-06-22T12:47:08;5.35;;;2.20;;
42700;SDS011;28316;49.504;8.526;2023-06-22T12:49:34;3.95;;;2.53;;
42700;SDS011;28316;49.504;8.526;2023-06-22T12:52:01;6.57;;;2.10;;
42700;SDS011;28316;49.504;8.526;2023-06-22T12:54:27;8.40;;;2.58;;
42700;SDS011;28316;49.504;8.526;2023-06-22T12:56:54;4.57;;;2.28;;
42700;SDS011;28316;49.504;8.526;2023-06-22T12:59:21;4.15;;;2.20;;
42700;SDS011;28316;49.504;8.526;2023-06-22T13:01:47;4.15;;;1.75;;
42700;SDS011;28316;49.504;8.526;2023-06-22T13:04:12;5.60;;;2.22;;
42700;SDS011;28316;49.504;8.526;2023-06-22T13:06:42;7.10;;;2.45;;
42700;SDS011;28316;49.504;8.526;2023-06-22T13:09:09;5.80;;;2.05;;
42700;SDS011;28316;49.504;8.526;2023-06-22T13:11:35;3.60;;;1.60;;
42700;SDS011;28316;49.504;8.526;2023-06-22T13:14:01;3.25;;;1.60;;
42700;SDS011;28316;49.504;8.526;2023-06-22T13:16:27;5.90;;;3.22;;
42700;SDS011;28316;49.504;8.526;2023-06-22T13:18:53;4.45;;;2.40;;
42700;SDS011;28316;49.504;8.526;2023-06-22T13:21:18;7.57;;;2.20;;
42700;SDS011;28316;49.504;8.526;2023-06-22T13:23:44;9.30;;;2.55;;
42700;SDS011;28316;49.504;8.526;2023-06-22T13:26:10;5.32;;;1.88;;
42700;SDS011;28316;49.504;8.526;2023-06-22T13:28:36;6.22;;;2.85;;
42700;SDS011;28316;49.504;8.526;2023-06-22T13:31:02;5.72;;;2.17;;
42700;SDS011;28316;49.504;8.526;2023-06-22T13:33:27;5.05;;;2.05;;
42700;SDS011;28316;49.504;8.526;2023-06-22T13:35:53;9.07;;;2.40;;
42700;SDS011;28316;49.504;8.526;2023-06-22T13:38:19;6.63;;;2.08;;
42700;SDS011;28316;49.504;8.526;2023-06-22T13:40:45;5.57;;;2.35;;
42700;SDS011;28316;49.504;8.526;2023-06-22T13:43:12;6.53;;;2.08;;
42700;SDS011;28316;49.504;8.526;2023-06-22T13:45:38;5.18;;;2.13;;
42700;SDS011;28316;49.504;8.526;2023-06-22T13:48:04;5.07;;;2.22;;
42700;SDS011;28316;49.504;8.526;2023-06-22T13:50:30;12.73;;;2.13;;
42700;SDS011;28316;49.504;8.526;2023-06-22T13:52:56;3.45;;;1.98;;
42700;SDS011;28316;49.504;8.526;2023-06-22T13:55:21;5.68;;;1.85;;
42700;SDS011;28316;49.504;8.526;2023-06-22T13:57:48;8.45;;;2.55;;
42700;SDS011;28316;49.504;8.526;2023-06-22T14:00:14;5.40;;;2.33;;
42700;SDS011;28316;49.504;8.526;2023-06-22T14:02:41;6.72;;;2.00;;
42700;SDS011;28316;49.504;8.526;2023-06-22T14:05:07;4.05;;;1.77;;
42700;SDS011;28316;49.504;8.526;2023-06-22T14:07:33;6.97;;;2.38;;
42700;SDS011;28316;49.504;8.526;2023-06-22T14:09:59;3.70;;;2.15;;
42700;SDS011;28316;49.504;8.526;2023-06-22T14:12:25;6.97;;;2.78;;
42700;SDS011;28316;49.504;8.526;2023-06-22T14:14:51;4.28;;;2.20;;
42700;SDS011;28316;49.504;8.526;2023-06-22T14:17:17;4.88;;;2.00;;
42700;SDS011;28316;49.504;8.526;2023-06-22T14:19:48;5.05;;;2.13;;
42700;SDS011;28316;49.504;8.526;2023-06-22T14:22:17;5.82;;;2.35;;
42700;SDS011;28316;49.504;8.526;2023-06-22T14:24:45;4.80;;;2.28;;
42700;SDS011;28316;49.504;8.526;2023-06-22T14:27:11;5.05;;;2.20;;
42700;SDS011;28316;49.504;8.526;2023-06-22T14:29:37;4.90;;;2.50;;
42700;SDS011;28316;49.504;8.526;2023-06-22T14:32:02;4.75;;;2.40;;
42700;SDS011;28316;49.504;8.526;2023-06-22T14:34:31;5.20;;;2.20;;
42700;SDS011;28316;49.504;8.526;2023-06-22T14:36:57;9.20;;;3.35;;
42700;SDS011;28316;49.504;8.526;2023-06-22T14:39:23;10.68;;;2.80;;
42700;SDS011;28316;49.504;8.526;2023-06-22T14:41:49;11.07;;;2.42;;
42700;SDS011;28316;49.504;8.526;2023-06-22T14:44:15;5.22;;;2.10;;
42700;SDS011;28316;49.504;8.526;2023-06-22T14:46:41;5.00;;;2.17;;
42700;SDS011;28316;49.504;8.526;2023-06-22T14:49:06;8.00;;;2.50;;
42700;SDS011;28316;49.504;8.526;2023-06-22T14:51:32;8.02;;;3.22;;
42700;SDS011;28316;49.504;8.526;2023-06-22T14:53:58;5.22;;;2.33;;
42700;SDS011;28316;49.504;8.526;2023-06-22T14:56:23;8.70;;;2.55;;